createdAt,value
2018-07-13T00:00:23.710Z,101367.00
2018-07-13T00:06:27.062Z,101368.00
2018-07-13T00:12:30.516Z,101367.00
2018-07-13T00:18:34.192Z,101361.00
2018-07-13T00:24:37.596Z,101372.00
2018-07-13T00:30:41.327Z,101383.00
2018-07-13T00:36:44.814Z,101386.00
2018-07-13T00:42:48.033Z,101376.00
2018-07-13T00:48:52.145Z,101382.00
2018-07-13T00:54:56.393Z,101383.00
2018-07-13T01:00:59.930Z,101381.00
2018-07-13T01:07:03.663Z,101384.00
2018-07-13T01:13:07.274Z,101384.00
2018-07-13T01:19:10.926Z,101387.00
2018-07-13T01:25:14.387Z,101377.00
2018-07-13T01:31:17.646Z,101383.00
2018-07-13T01:37:20.931Z,101399.00
2018-07-13T01:43:25.070Z,101388.00
2018-07-13T01:49:28.484Z,101384.00
2018-07-13T01:55:31.849Z,101385.00
2018-07-13T02:01:35.166Z,101383.00
2018-07-13T02:07:38.792Z,101388.00
2018-07-13T02:13:42.211Z,101390.00
2018-07-13T02:19:45.941Z,101382.00
2018-07-13T02:25:49.203Z,101393.00
2018-07-13T02:31:52.521Z,101380.00
2018-07-13T02:37:55.973Z,101387.00
2018-07-13T02:43:59.281Z,101393.00
2018-07-13T02:50:03.099Z,101396.00
2018-07-13T02:56:06.652Z,101402.00
2018-07-13T03:02:10.183Z,101397.00
2018-07-13T03:08:13.833Z,101390.00
2018-07-13T03:14:17.331Z,101402.00
2018-07-13T03:20:20.875Z,101403.00
2018-07-13T03:26:24.134Z,101410.00
2018-07-13T03:32:27.722Z,101418.00
2018-07-13T03:38:31.190Z,101393.00
2018-07-13T03:44:34.767Z,101433.00
2018-07-13T03:50:38.410Z,101437.00
2018-07-13T03:56:41.684Z,101430.00
2018-07-13T04:02:45.460Z,101430.00
2018-07-13T04:08:49.195Z,101427.00
2018-07-13T04:14:52.562Z,101439.00
2018-07-13T04:20:59.094Z,101427.00
2018-07-13T04:27:02.551Z,101431.00
2018-07-13T04:33:05.936Z,101439.00
2018-07-13T04:39:10.961Z,101429.00
2018-07-13T04:45:14.482Z,101423.00
2018-07-13T04:51:24.167Z,101428.00
2018-07-13T04:57:27.566Z,101430.00
2018-07-13T05:03:31.236Z,101433.00
2018-07-13T05:09:34.687Z,101442.00
2018-07-13T05:15:38.262Z,101435.00
2018-07-13T05:21:41.673Z,101438.00
2018-07-13T05:27:45.954Z,101437.00
2018-07-13T05:33:49.576Z,101446.00
2018-07-13T05:39:53.415Z,101443.00
2018-07-13T05:45:56.998Z,101456.00
2018-07-13T05:52:00.637Z,101454.00
2018-07-13T05:58:04.206Z,101457.00
2018-07-13T06:04:07.942Z,101463.00
2018-07-13T06:10:12.024Z,101468.00
2018-07-13T06:16:16.320Z,101466.00
2018-07-13T06:22:20.110Z,101467.00
2018-07-13T06:28:23.866Z,101466.00
2018-07-13T06:34:27.883Z,101456.00
2018-07-13T06:40:32.269Z,101463.00
2018-07-13T06:46:38.794Z,101466.00
2018-07-13T06:52:42.557Z,101461.00
2018-07-13T06:58:59.814Z,101459.00
2018-07-13T07:06:15.460Z,101472.00
2018-07-13T07:13:05.485Z,101477.00
2018-07-13T07:19:10.614Z,101481.00
2018-07-13T07:25:14.134Z,101481.00
2018-07-13T07:31:17.680Z,101474.00
2018-07-13T07:37:21.559Z,101471.00
2018-07-13T07:43:25.302Z,101469.00
2018-07-13T07:49:29.036Z,101471.00
2018-07-13T07:55:32.596Z,101471.00
2018-07-13T08:01:36.048Z,101462.00
2018-07-13T08:07:39.627Z,101472.00
2018-07-13T08:13:43.609Z,101467.00
2018-07-13T08:19:46.978Z,101465.00
2018-07-13T08:25:51.591Z,101482.00
2018-07-13T08:31:55.007Z,101478.00
2018-07-13T08:37:59.939Z,101477.00
2018-07-13T08:44:05.553Z,101479.00
2018-07-13T08:50:09.127Z,101477.00
2018-07-13T08:56:13.044Z,101472.00
2018-07-13T09:02:17.094Z,101479.00
2018-07-13T09:08:20.905Z,101469.00
2018-07-13T09:14:24.415Z,101464.00
2018-07-13T09:20:27.912Z,101464.00
2018-07-13T09:26:32.161Z,101480.00
2018-07-13T09:32:35.922Z,101478.00
2018-07-13T09:38:39.834Z,101471.00
2018-07-13T09:44:43.740Z,101461.00
2018-07-13T09:50:47.199Z,101464.00
2018-07-13T09:56:50.607Z,101467.00
2018-07-13T10:02:54.245Z,101479.00
2018-07-13T10:08:57.800Z,101467.00
2018-07-13T10:15:01.366Z,101466.00
2018-07-13T10:21:06.986Z,101472.00
2018-07-13T10:27:11.431Z,101472.00
2018-07-13T10:33:17.727Z,101462.00
2018-07-13T10:39:21.973Z,101457.00
2018-07-13T10:45:25.462Z,101462.00
2018-07-13T10:51:28.995Z,101417.00
2018-07-13T10:57:32.495Z,101456.00
2018-07-13T11:03:36.012Z,101465.00
2018-07-13T11:09:39.308Z,101458.00
2018-07-13T11:15:43.723Z,101458.00
2018-07-13T11:21:47.323Z,101441.00
2018-07-13T11:27:51.019Z,101445.00
2018-07-13T11:33:54.773Z,101443.00
2018-07-13T11:39:58.312Z,101431.00
2018-07-13T11:46:02.054Z,101437.00
2018-07-13T11:52:05.877Z,101431.00
2018-07-13T11:58:09.230Z,101421.00
2018-07-13T12:04:12.584Z,101415.00
2018-07-13T12:10:16.522Z,101410.00
2018-07-13T12:16:20.057Z,101406.00
2018-07-13T12:22:23.602Z,101404.00
2018-07-13T12:28:26.903Z,101398.00
2018-07-13T12:34:30.955Z,101399.00
2018-07-13T12:40:34.978Z,101396.00
2018-07-13T12:46:38.553Z,101391.00
2018-07-13T12:52:42.096Z,101379.00
2018-07-13T12:58:45.677Z,101379.00
2018-07-13T13:04:49.185Z,101377.00
2018-07-13T13:10:52.685Z,101375.00
2018-07-13T13:16:56.227Z,101345.00
2018-07-13T13:22:59.629Z,101371.00
2018-07-13T13:29:04.165Z,101378.00
2018-07-13T13:35:07.602Z,101377.00
2018-07-13T13:41:11.021Z,101362.00
2018-07-13T13:47:15.383Z,101369.00
2018-07-13T13:53:18.906Z,101362.00
2018-07-13T13:59:22.294Z,101348.00
2018-07-13T14:05:26.687Z,101351.00
2018-07-13T14:11:29.979Z,101348.00
2018-07-13T14:17:33.342Z,101349.00
2018-07-13T14:23:39.015Z,101346.00
2018-07-13T14:29:42.623Z,101334.00
2018-07-13T14:35:46.351Z,101335.00
2018-07-13T14:41:56.446Z,101331.00
2018-07-13T14:47:59.959Z,101329.00
2018-07-13T14:54:03.889Z,101331.00
2018-07-13T15:00:07.480Z,101324.00
2018-07-13T15:06:11.336Z,101318.00
2018-07-13T15:12:15.605Z,101319.00
2018-07-13T15:18:19.096Z,101302.00
2018-07-13T15:24:22.434Z,101317.00
2018-07-13T15:30:26.010Z,101312.00
2018-07-13T15:36:29.352Z,101306.00
2018-07-13T15:42:33.099Z,101303.00
2018-07-13T15:48:36.775Z,101304.00
2018-07-13T15:54:40.413Z,101310.00
2018-07-13T16:00:44.078Z,101307.00
2018-07-13T16:06:47.490Z,101278.00
2018-07-13T16:12:50.970Z,101298.00
2018-07-13T16:18:54.630Z,101297.00
2018-07-13T16:24:58.289Z,101295.00
2018-07-13T16:31:03.171Z,101292.00
2018-07-13T16:37:06.659Z,101289.00
2018-07-13T16:43:10.482Z,101290.00
2018-07-13T16:49:14.093Z,101280.00
2018-07-13T16:55:19.441Z,101283.00
2018-07-13T17:01:22.919Z,101278.00
2018-07-13T17:07:26.427Z,101277.00
2018-07-13T17:13:29.871Z,101266.00
2018-07-13T17:19:39.897Z,101269.00
2018-07-13T17:25:43.396Z,101274.00
2018-07-13T17:31:46.881Z,101271.00
2018-07-13T17:37:51.646Z,101272.00
2018-07-13T17:43:55.542Z,101271.00
2018-07-13T17:49:59.479Z,101268.00
2018-07-13T17:56:03.777Z,101272.00
2018-07-13T18:02:07.364Z,101274.00
2018-07-13T18:08:11.838Z,101263.00
2018-07-13T18:14:15.352Z,101256.00
2018-07-13T18:20:19.028Z,101261.00
2018-07-13T18:26:23.964Z,101257.00
2018-07-13T18:32:27.327Z,101258.00
2018-07-13T18:38:30.678Z,101257.00
2018-07-13T18:44:35.408Z,101259.00
2018-07-13T18:50:39.197Z,101257.00
2018-07-13T18:56:42.966Z,101262.00
2018-07-13T19:02:46.579Z,101261.00
2018-07-13T19:08:50.235Z,101266.00
2018-07-13T19:14:54.423Z,101264.00
2018-07-13T19:20:58.007Z,101267.00
2018-07-13T19:27:01.631Z,101278.00
2018-07-13T19:33:05.225Z,101284.00
2018-07-13T19:39:09.456Z,101287.00
2018-07-13T19:45:12.986Z,101293.00
2018-07-13T19:51:16.677Z,101294.00
2018-07-13T19:57:20.082Z,101299.00
2018-07-13T20:03:30.507Z,101305.00
2018-07-13T20:09:34.025Z,101312.00
2018-07-13T20:15:37.378Z,101318.00
2018-07-13T20:21:41.535Z,101316.00
2018-07-13T20:27:45.033Z,101326.00
2018-07-13T20:33:48.560Z,101327.00
2018-07-13T20:39:52.388Z,101326.00
2018-07-13T20:45:55.756Z,101334.00
2018-07-13T20:51:59.334Z,101332.00
2018-07-13T20:58:02.860Z,101340.00
2018-07-13T21:04:06.417Z,101335.00
2018-07-13T21:10:10.050Z,101344.00
2018-07-13T21:16:13.572Z,101349.00
2018-07-13T21:22:17.049Z,101350.00
2018-07-13T21:28:21.179Z,101362.00
2018-07-13T21:34:24.961Z,101361.00
2018-07-13T21:40:28.411Z,101367.00
2018-07-13T21:46:31.866Z,101356.00
2018-07-13T21:52:35.306Z,101357.00
2018-07-13T21:58:39.074Z,101358.00
2018-07-13T22:04:42.819Z,101352.00
2018-07-13T22:10:46.308Z,101367.00
2018-07-13T22:16:49.630Z,101366.00
2018-07-13T22:22:53.076Z,101364.00
2018-07-13T22:28:56.673Z,101369.00
2018-07-13T22:35:00.280Z,101384.00
2018-07-13T22:41:03.942Z,101383.00
2018-07-13T22:47:07.447Z,101387.00
2018-07-13T22:53:10.957Z,101389.00
2018-07-13T22:59:14.437Z,101388.00
2018-07-13T23:05:17.743Z,101385.00
2018-07-13T23:11:21.382Z,101392.00
2018-07-13T23:17:24.903Z,101391.00
2018-07-13T23:23:28.279Z,101387.00
2018-07-13T23:29:31.779Z,101393.00
2018-07-13T23:35:35.973Z,101388.00
2018-07-13T23:41:39.391Z,101380.00
2018-07-13T23:47:43.148Z,101381.00
2018-07-13T23:53:46.428Z,101383.00
2018-07-13T23:59:50.830Z,101371.00
